Time;durP1;ratioP1;P1;durP2;ratioP2;P2;SDS_P1;SDS_P2;PMS_P1;PMS_P2;Temp;Humidity;BMP_temperature;BMP_pressure;BME280_temperature;BME280_humidity;BME280_pressure;Samples;Min_cycle;Max_cycle;Signal;HPM_P1;HPM_P2
2022/03/05 00:03:38;;;;;;;22.40;13.60;;;23.20;44.90;;;;;;220673;1265;22583;-55
2022/03/05 00:08:50;;;;;;;20.40;13.20;;;23.10;45.00;;;;;;220413;1264;22550;-56
2022/03/05 00:13:56;;;;;;;23.80;14.00;;;22.90;45.30;;;;;;220348;1267;22533;-57
2022/03/05 00:19:01;;;;;;;21.40;12.90;;;22.90;45.80;;;;;;220462;1264;24325;-54
2022/03/05 00:24:05;;;;;;;20.50;11.90;;;22.90;45.80;;;;;;220292;1265;22543;-59
2022/03/05 00:29:08;;;;;;;18.50;11.80;;;22.80;46.00;;;;;;220243;1267;24431;-55
2022/03/05 00:34:12;;;;;;;20.00;12.30;;;22.70;46.00;;;;;;220088;1264;22522;-56
2022/03/05 00:39:16;;;;;;;18.90;11.50;;;22.70;46.00;;;;;;220190;1267;22758;-55
2022/03/05 00:44:20;;;;;;;17.60;10.70;;;22.60;45.90;;;;;;220415;1264;22582;-54
2022/03/05 00:49:25;;;;;;;17.70;12.30;;;22.60;45.80;;;;;;220324;1264;22563;-56
2022/03/05 00:54:28;;;;;;;20.40;12.50;;;22.60;45.80;;;;;;220199;1267;22528;-53
2022/03/05 00:59:32;;;;;;;17.30;11.70;;;22.60;45.90;;;;;;220393;1264;22581;-56
2022/03/05 01:04:36;;;;;;;17.90;11.30;;;22.50;45.80;;;;;;220165;1267;24530;-55
2022/03/05 01:09:40;;;;;;;16.40;11.30;;;22.40;46.00;;;;;;220313;1265;25665;-54
2022/03/05 01:14:44;;;;;;;20.10;11.80;;;22.30;46.10;;;;;;220130;1267;22567;-54
2022/03/05 01:19:48;;;;;;;15.70;10.10;;;22.40;46.00;;;;;;220222;1264;25340;-56
2022/03/05 01:24:52;;;;;;;15.30;9.50;;;22.70;45.40;;;;;;220104;1267;22539;-55
2022/03/05 01:29:56;;;;;;;17.00;9.70;;;23.00;45.10;;;;;;220137;1264;25690;-55
2022/03/05 01:34:59;;;;;;;16.80;10.10;;;23.40;44.50;;;;;;220126;1267;25929;-54
2022/03/05 01:40:04;;;;;;;13.40;9.30;;;23.50;44.10;;;;;;219929;1267;22540;-57
2022/03/05 01:45:11;;;;;;;16.50;10.50;;;23.60;43.70;;;;;;220298;1265;22541;-55
2022/03/05 01:50:14;;;;;;;16.30;9.80;;;23.60;43.60;;;;;;220178;1264;25393;-57
2022/03/05 01:55:18;;;;;;;15.90;9.90;;;23.70;43.50;;;;;;220103;1267;22599;-57
2022/03/05 02:00:22;;;;;;;14.90;9.30;;;23.80;43.40;;;;;;220195;1267;22541;-56
2022/03/05 02:05:26;;;;;;;14.80;9.20;;;23.80;43.20;;;;;;220397;1264;22564;-57
2022/03/05 02:10:30;;;;;;;15.40;9.50;;;23.80;43.40;;;;;;220306;1265;22627;-58
2022/03/05 02:15:34;;;;;;;18.30;9.60;;;23.90;43.50;;;;;;220022;1267;22730;-55
2022/03/05 02:20:39;;;;;;;15.70;9.40;;;24.00;43.50;;;;;;220744;1264;22602;-57
2022/03/05 02:25:57;;;;;;;16.30;9.90;;;24.00;43.10;;;;;;220519;1267;25215;-56
2022/03/05 02:31:00;;;;;;;16.40;9.70;;;24.00;43.10;;;;;;220255;1265;24292;-58
2022/03/05 02:36:05;;;;;;;14.50;9.70;;;24.10;43.40;;;;;;220025;1267;22541;-57
2022/03/05 02:41:09;;;;;;;15.40;9.00;;;24.10;43.20;;;;;;220447;1267;25407;-57
2022/03/05 02:46:12;;;;;;;16.80;9.60;;;24.10;43.50;;;;;;219991;1267;25681;-55
2022/03/05 02:51:16;;;;;;;14.60;8.90;;;24.10;43.20;;;;;;220264;1268;22537;-58
2022/03/05 02:56:20;;;;;;;15.70;9.20;;;24.20;43.20;;;;;;220249;1267;22552;-56
2022/03/05 03:01:24;;;;;;;16.00;9.10;;;24.10;43.10;;;;;;220185;1265;25045;-56
2022/03/05 03:06:28;;;;;;;14.40;8.80;;;24.20;43.10;;;;;;220145;1267;22561;-55
2022/03/05 03:11:32;;;;;;;14.40;8.60;;;24.10;43.20;;;;;;220251;1265;22684;-57
2022/03/05 03:16:38;;;;;;;14.60;8.90;;;24.00;43.50;;;;;;220142;1267;25478;-57
2022/03/05 03:21:43;;;;;;;12.10;8.30;;;23.90;43.90;;;;;;220252;1265;26932;-55
2022/03/05 03:26:51;;;;;;;11.80;7.50;;;23.80;43.70;;;;;;220269;1267;22745;-53
2022/03/05 03:31:59;;;;;;;;;;;23.60;44.10;;;;;;220282;1265;22507;-55
2022/03/05 03:37:20;;;;;;;14.70;8.10;;;23.50;44.40;;;;;;220290;1265;22540;-55
2022/03/05 03:42:27;;;;;;;12.00;8.20;;;23.30;44.60;;;;;;220360;1264;24289;-54
2022/03/05 03:47:32;;;;;;;10.80;7.80;;;23.20;44.80;;;;;;220427;1267;24223;-57
2022/03/05 03:52:37;;;;;;;13.40;7.70;;;23.20;44.90;;;;;;220058;1267;22614;-56
2022/03/05 03:57:43;;;;;;;10.90;7.60;;;23.10;45.20;;;;;;220445;1265;25695;-57
2022/03/05 04:02:53;;;;;;;11.60;7.90;;;22.90;45.60;;;;;;220207;1265;22571;-57
2022/03/05 04:13:21;;;;;;;12.90;8.40;;;22.80;46.00;;;;;;220173;1267;25534;-57
2022/03/05 04:18:25;;;;;;;11.70;7.70;;;22.70;46.20;;;;;;220339;1265;25252;-56
2022/03/05 04:23:28;;;;;;;13.20;9.00;;;22.60;46.50;;;;;;220083;1267;25265;-56
2022/03/05 04:28:32;;;;;;;13.10;8.70;;;22.50;46.80;;;;;;220457;1267;22554;-54
2022/03/05 04:33:36;;;;;;;14.70;8.00;;;22.40;46.90;;;;;;220165;1267;24306;-56
2022/03/05 04:38:40;;;;;;;11.30;7.60;;;22.40;46.90;;;;;;220487;1267;24230;-57
2022/03/05 04:43:44;;;;;;;12.70;7.20;;;22.50;47.30;;;;;;220355;1267;22617;-55
2022/03/05 04:48:49;;;;;;;11.10;7.30;;;22.90;46.20;;;;;;220175;1265;22525;-58
2022/03/05 04:53:54;;;;;;;10.90;6.90;;;23.20;45.80;;;;;;220541;1265;22727;-54
2022/03/05 04:59:00;;;;;;;10.90;6.80;;;23.40;45.40;;;;;;220139;1267;22534;-57
2022/03/05 05:04:05;;;;;;;10.60;7.30;;;23.60;45.00;;;;;;220336;1267;22768;-56
2022/03/05 05:09:08;;;;;;;11.20;7.30;;;23.70;45.00;;;;;;220236;1268;25294;-57
2022/03/05 05:14:13;;;;;;;12.20;7.40;;;23.80;45.50;;;;;;220261;1264;22537;-55
2022/03/05 05:19:25;;;;;;;10.90;7.20;;;23.80;44.80;;;;;;220035;1267;24289;-53
2022/03/05 05:24:32;;;;;;;10.10;7.00;;;23.80;44.90;;;;;;220696;1267;25464;-56
2022/03/05 05:29:36;;;;;;;13.20;7.50;;;23.90;44.90;;;;;;220576;1267;24380;-58
2022/03/05 05:34:45;;;;;;;10.30;6.70;;;23.90;44.90;;;;;;220333;1267;22651;-58
2022/03/05 05:39:53;;;;;;;10.20;6.60;;;24.00;45.30;;;;;;220332;1264;23149;-55
2022/03/05 05:44:58;;;;;;;10.30;7.00;;;24.00;44.90;;;;;;220047;1267;25401;-54
2022/03/05 05:50:03;;;;;;;9.70;6.60;;;24.00;45.30;;;;;;220304;1264;22601;-55
2022/03/05 05:55:08;;;;;;;10.10;6.80;;;24.10;45.30;;;;;;220193;1265;25336;-56
2022/03/05 06:00:14;;;;;;;12.00;7.20;;;24.10;45.20;;;;;;220463;1267;25893;-57
2022/03/05 06:05:20;;;;;;;9.90;6.70;;;24.10;44.80;;;;;;220116;1265;22528;-57
2022/03/05 06:10:28;;;;;;;9.50;6.10;;;24.10;44.90;;;;;;220310;1267;25256;-55
2022/03/05 06:15:36;;;;;;;9.70;6.80;;;24.10;44.80;;;;;;220190;1264;22531;-57
2022/03/05 06:20:45;;;;;;;10.10;6.60;;;24.20;44.80;;;;;;220417;1267;24401;-55
2022/03/05 06:25:51;;;;;;;10.20;6.60;;;24.20;44.90;;;;;;220344;1265;22526;-54
2022/03/05 06:31:04;;;;;;;10.50;5.70;;;24.20;44.90;;;;;;220206;1265;24554;-57
2022/03/05 06:36:18;;;;;;;8.40;5.80;;;24.20;44.70;;;;;;220077;1265;22528;-60
2022/03/05 06:41:23;;;;;;;9.50;5.90;;;24.20;45.30;;;;;;220704;1265;22561;-58
2022/03/05 06:46:27;;;;;;;11.30;5.40;;;24.30;44.60;;;;;;220182;1267;22566;-56
2022/03/05 06:51:31;;;;;;;8.70;6.00;;;24.40;44.60;;;;;;220308;1267;22569;-54
2022/03/05 06:56:34;;;;;;;9.50;5.90;;;24.50;44.40;;;;;;220010;1265;22618;-58
2022/03/05 07:01:38;;;;;;;9.00;5.70;;;24.40;44.50;;;;;;220077;1265;22565;-57
2022/03/05 07:06:45;;;;;;;8.30;5.50;;;24.30;44.80;;;;;;220191;1267;24263;-56
2022/03/05 07:11:48;;;;;;;7.30;5.30;;;24.20;44.90;;;;;;220066;1271;22523;-54
2022/03/05 07:16:53;;;;;;;8.60;5.80;;;24.10;45.20;;;;;;220213;1265;24331;-55
2022/03/05 07:21:59;;;;;;;8.10;5.40;;;23.90;45.30;;;;;;220384;1267;26556;-54
2022/03/05 07:27:09;;;;;;;7.90;5.10;;;23.90;45.30;;;;;;220182;1265;22566;-56
2022/03/05 07:32:13;;;;;;;8.70;5.90;;;23.70;45.80;;;;;;220450;1267;22608;-56
2022/03/05 07:37:17;;;;;;;8.70;5.90;;;23.60;46.00;;;;;;220530;1268;22602;-56
2022/03/05 07:42:21;;;;;;;10.30;6.00;;;23.50;46.10;;;;;;220130;1267;22752;-55
2022/03/05 07:47:27;;;;;;;10.10;5.80;;;23.30;46.30;;;;;;220315;1267;22702;-56
2022/03/05 07:52:31;;;;;;;8.70;5.60;;;23.20;46.40;;;;;;220351;1265;22548;-57
2022/03/05 07:57:35;;;;;;;9.40;5.80;;;23.10;46.70;;;;;;220399;1265;22594;-57
2022/03/05 08:02:39;;;;;;;9.70;6.60;;;23.00;46.80;;;;;;220454;1268;22593;-54
2022/03/05 08:07:43;;;;;;;9.10;6.10;;;23.00;46.90;;;;;;220458;1267;24247;-55
2022/03/05 08:12:48;;;;;;;10.30;5.70;;;22.80;46.90;;;;;;220333;1267;26506;-55
2022/03/05 08:17:58;;;;;;;9.50;5.50;;;22.80;47.00;;;;;;220365;1267;24435;-55
2022/03/05 08:23:01;;;;;;;9.00;5.70;;;22.70;47.40;;;;;;220499;1267;22549;-57
2022/03/05 08:28:05;;;;;;;8.70;5.40;;;22.70;47.10;;;;;;220865;1268;22623;-57
2022/03/05 08:33:09;;;;;;;10.50;5.90;;;22.70;47.40;;;;;;220527;1267;22518;-56
2022/03/05 08:38:12;;;;;;;10.20;5.70;;;22.70;47.10;;;;;;220769;1267;22703;-52
2022/03/05 08:43:16;;;;;;;9.90;6.40;;;22.60;47.30;;;;;;220119;1267;22561;-57
2022/03/05 08:48:20;;;;;;;10.80;5.30;;;22.50;47.50;;;;;;220249;1268;24303;-56
2022/03/05 08:53:24;;;;;;;7.50;5.50;;;22.50;48.00;;;;;;220296;1268;22536;-57
2022/03/05 08:58:28;;;;;;;8.60;5.40;;;22.40;47.90;;;;;;220338;1267;24374;-57
2022/03/05 09:03:31;;;;;;;27.50;6.60;;;22.50;47.80;;;;;;220039;1267;24306;-57
2022/03/05 09:08:37;;;;;;;9.10;5.60;;;22.70;47.30;;;;;;220355;1267;25564;-56
2022/03/05 09:13:42;;;;;;;13.10;5.30;;;22.90;47.60;;;;;;220283;1268;25419;-58
2022/03/05 09:18:48;;;;;;;10.90;5.30;;;23.20;47.20;;;;;;220014;1267;25569;-57
2022/03/05 09:23:56;;;;;;;9.90;5.50;;;23.40;46.10;;;;;;220416;1268;22761;-54
2022/03/05 09:28:59;;;;;;;11.40;5.70;;;23.50;45.90;;;;;;220444;1267;24309;-57
2022/03/05 09:34:03;;;;;;;9.40;5.30;;;23.60;45.80;;;;;;220138;1268;445629;-57
2022/03/05 09:39:07;;;;;;;12.80;5.20;;;23.70;46.60;;;;;;220396;1268;22606;-56
2022/03/05 09:44:11;;;;;;;15.00;5.80;;;23.80;46.00;;;;;;220523;1265;22599;-58
2022/03/05 09:49:17;;;;;;;21.60;6.20;;;24.00;45.20;;;;;;219958;1268;25404;-58
2022/03/05 09:54:24;;;;;;;16.40;5.50;;;24.00;44.70;;;;;;228011;1266;22532;-57
2022/03/05 09:59:27;;;;;;;16.90;5.80;;;24.10;45.00;;;;;;228063;1266;23217;-58
2022/03/05 10:04:32;;;;;;;17.60;5.20;;;24.10;45.40;;;;;;227975;1265;22390;-55
2022/03/05 10:09:37;;;;;;;13.50;5.10;;;24.10;44.70;;;;;;228157;1266;23268;-54
2022/03/05 10:15:03;;;;;;;16.00;5.20;;;24.20;44.70;;;;;;228046;1268;23227;-58
2022/03/05 10:20:07;;;;;;;17.80;6.00;;;24.20;44.90;;;;;;228108;1266;23167;-58
2022/03/05 10:25:14;;;;;;;17.30;6.00;;;24.20;46.40;;;;;;228076;1265;22347;-53
2022/03/05 10:30:28;;;;;;;17.40;6.80;;;24.10;47.00;;;;;;228094;1270;23049;-57
2022/03/05 10:35:34;;;;;;;25.40;6.30;;;23.90;47.40;;;;;;228147;1270;22373;-56
2022/03/05 10:40:37;;;;;;;18.30;6.60;;;23.70;48.80;;;;;;228246;1269;22340;-56
2022/03/05 10:45:55;;;;;;;18.70;7.30;;;23.60;48.20;;;;;;228275;1270;22194;-55
2022/03/05 10:51:11;;;;;;;20.10;6.30;;;23.60;48.30;;;;;;228183;1270;22493;-55
2022/03/05 10:56:31;;;;;;;14.60;6.30;;;23.30;49.10;;;;;;228055;1266;22503;-54
2022/03/05 11:01:42;;;;;;;16.30;6.80;;;23.10;49.50;;;;;;228180;1269;23115;-54
2022/03/05 11:06:45;;;;;;;18.80;6.80;;;23.00;49.70;;;;;;228197;1267;22340;-56
2022/03/05 11:11:52;;;;;;;15.90;6.50;;;22.90;49.70;;;;;;228113;1266;22401;-56
2022/03/05 11:16:59;;;;;;;17.50;7.90;;;22.90;49.60;;;;;;228168;1264;22527;-55
2022/03/05 11:22:04;;;;;;;19.90;6.80;;;22.90;49.40;;;;;;228075;1267;22658;-55
2022/03/05 11:27:14;;;;;;;15.50;6.50;;;22.90;49.30;;;;;;227863;1268;22407;-53
2022/03/05 11:32:41;;;;;;;15.30;7.70;;;23.00;49.40;;;;;;220871;1267;22532;-56
2022/03/05 11:37:50;;;;;;;18.50;6.50;;;22.90;49.70;;;;;;220611;1267;25590;-55
2022/03/05 11:43:18;;;;;;;18.80;7.40;;;23.10;51.10;;;;;;220611;1266;25498;-55
2022/03/05 11:48:45;;;;;;;21.70;8.70;;;22.90;50.30;;;;;;220494;1268;22677;-55
2022/03/05 11:54:19;;;;;;;16.30;7.80;;;22.80;50.00;;;;;;220177;1266;22616;-55
2022/03/05 11:59:51;;;;;;;14.20;7.30;;;22.80;50.40;;;;;;220152;1267;24215;-54
2022/03/05 12:04:57;;;;;;;16.90;7.00;;;23.00;50.80;;;;;;220511;1268;22535;-53
2022/03/05 12:10:10;;;;;;;14.50;6.90;;;22.90;50.50;;;;;;220331;1267;23936;-55
2022/03/05 12:15:14;;;;;;;17.70;7.00;;;22.90;50.30;;;;;;220723;1268;22535;-55
2022/03/05 12:20:22;;;;;;;17.80;7.30;;;22.90;50.00;;;;;;220311;1267;22554;-56
2022/03/05 12:25:28;;;;;;;19.80;7.50;;;22.90;50.20;;;;;;220274;1268;22545;-51
2022/03/05 12:30:38;;;;;;;19.40;6.80;;;23.00;50.30;;;;;;220440;1267;22549;-51
2022/03/05 12:35:50;;;;;;;21.90;7.10;;;22.90;50.00;;;;;;220216;1266;24227;-52
2022/03/05 12:41:03;;;;;;;16.60;7.40;;;22.70;50.40;;;;;;220279;1268;24305;-53
2022/03/05 12:46:07;;;;;;;16.20;7.70;;;22.60;50.70;;;;;;220950;1267;26645;-50
2022/03/05 12:51:12;;;;;;;16.10;7.40;;;22.60;51.20;;;;;;220111;1267;26363;-53
2022/03/05 12:56:22;;;;;;;17.20;6.50;;;22.50;51.50;;;;;;220536;1267;26892;-54
2022/03/05 13:01:30;;;;;;;18.50;7.30;;;22.50;51.70;;;;;;220829;1265;22563;-53
2022/03/05 13:06:34;;;;;;;16.30;7.10;;;22.40;51.80;;;;;;220313;1265;22608;-54
2022/03/05 13:11:38;;;;;;;15.70;7.70;;;22.40;52.30;;;;;;220516;1267;24347;-53
2022/03/05 13:16:41;;;;;;;16.90;6.30;;;22.40;51.90;;;;;;220331;1267;22525;-51
2022/03/05 13:21:48;;;;;;;13.30;6.60;;;22.40;51.90;;;;;;220373;1267;22690;-51
2022/03/05 13:26:55;;;;;;;16.40;7.00;;;22.40;51.60;;;;;;220395;1267;25357;-50
2022/03/05 13:32:02;;;;;;;16.30;6.80;;;22.30;52.10;;;;;;220536;1266;23470;-54
2022/03/05 13:37:11;;;;;;;12.30;6.30;;;22.30;51.40;;;;;;220160;1267;25309;-50
2022/03/05 13:42:18;;;;;;;15.20;7.30;;;22.30;51.70;;;;;;220167;1267;22547;-52
2022/03/05 13:47:21;;;;;;;17.30;6.50;;;22.20;51.70;;;;;;220254;1267;25376;-54
2022/03/05 13:52:25;;;;;;;15.80;6.90;;;22.20;51.70;;;;;;220502;1265;24296;-54
2022/03/05 13:57:44;;;;;;;10.80;5.70;;;22.20;51.70;;;;;;220099;1267;24233;-50
2022/03/05 14:02:51;;;;;;;12.50;6.90;;;22.30;51.10;;;;;;224493;1266;23902;-55
2022/03/05 14:08:02;;;;;;;12.80;6.90;;;22.60;50.40;;;;;;220254;1267;24453;-55
2022/03/05 14:13:15;;;;;;;17.10;6.70;;;23.00;49.20;;;;;;220280;1267;25242;-57
2022/03/05 14:18:19;;;;;;;12.20;6.10;;;23.20;48.70;;;;;;220170;1267;22525;-52
2022/03/05 14:23:27;;;;;;;13.20;6.40;;;23.40;48.30;;;;;;220004;1267;25323;-53
2022/03/05 14:28:32;;;;;;;16.10;6.40;;;23.40;48.30;;;;;;220141;1267;22672;-58
2022/03/05 14:33:38;;;;;;;10.80;6.10;;;23.60;48.00;;;;;;220486;1267;22789;-57
2022/03/05 14:38:42;;;;;;;11.40;6.00;;;23.60;47.80;;;;;;220325;1267;22680;-56
2022/03/05 14:43:46;;;;;;;10.60;5.80;;;23.70;47.60;;;;;;220227;1267;25480;-57
2022/03/05 14:48:53;;;;;;;11.40;5.70;;;23.70;47.40;;;;;;220346;1267;24400;-56
2022/03/05 14:54:06;;;;;;;8.90;5.40;;;23.70;47.20;;;;;;220620;1267;22553;-57
2022/03/05 14:59:13;;;;;;;11.20;5.30;;;23.80;47.30;;;;;;220243;1265;24800;-55
2022/03/05 15:04:17;;;;;;;10.70;5.40;;;23.80;47.30;;;;;;220205;1264;24323;-56
2022/03/05 15:09:21;;;;;;;12.30;5.40;;;23.80;47.30;;;;;;220155;1267;25410;-57
2022/03/05 15:14:26;;;;;;;10.80;5.50;;;23.80;47.30;;;;;;220222;1267;28484;-53
2022/03/05 15:19:37;;;;;;;12.70;5.10;;;23.90;48.00;;;;;;220877;1267;22631;-55
2022/03/05 15:24:42;;;;;;;10.30;5.50;;;23.90;47.70;;;;;;220921;1267;23502;-53
2022/03/05 15:29:52;;;;;;;8.30;5.70;;;23.90;47.60;;;;;;220957;1267;26701;-58
2022/03/05 15:34:59;;;;;;;10.10;5.20;;;23.90;47.80;;;;;;220602;1267;24690;-57
2022/03/05 15:40:05;;;;;;;9.80;4.80;;;23.90;47.40;;;;;;220318;1267;24155;-56
2022/03/05 15:45:11;;;;;;;17.10;5.70;;;24.00;47.40;;;;;;220429;1267;22576;-56
2022/03/05 15:50:18;;;;;;;9.80;5.20;;;24.00;46.00;;;;;;219947;1267;22562;-56
2022/03/05 15:55:25;;;;;;;11.70;5.30;;;24.00;45.40;;;;;;220056;1267;22617;-56
2022/03/05 16:00:31;;;;;;;9.90;5.80;;;24.10;45.40;;;;;;220510;1266;24382;-57
2022/03/05 16:05:37;;;;;;;11.00;5.30;;;24.10;45.60;;;;;;220110;1267;25365;-55
2022/03/05 16:10:42;;;;;;;12.10;5.80;;;24.10;45.90;;;;;;220336;1267;22563;-54
2022/03/05 16:15:47;;;;;;;11.20;5.80;;;24.20;45.30;;;;;;220513;1267;24265;-55
2022/03/05 16:20:52;;;;;;;12.40;6.40;;;24.20;45.90;;;;;;220339;1267;25255;-55
2022/03/05 16:25:58;;;;;;;19.10;7.20;;;24.20;45.00;;;;;;220729;1267;22529;-56
2022/03/05 16:31:08;;;;;;;18.10;7.70;;;24.30;45.30;;;;;;220843;1267;25471;-55
2022/03/05 16:36:14;;;;;;;18.00;8.40;;;24.20;46.30;;;;;;220061;1267;25502;-59
2022/03/05 16:41:24;;;;;;;16.50;8.20;;;24.00;46.10;;;;;;220360;1267;23779;-55
2022/03/05 16:46:32;;;;;;;18.80;8.70;;;23.90;46.00;;;;;;219975;1267;25396;-56
2022/03/05 16:51:44;;;;;;;19.90;8.60;;;23.80;46.00;;;;;;220528;1267;22962;-56
2022/03/05 16:57:00;;;;;;;21.20;8.30;;;23.60;45.80;;;;;;220767;1267;23130;-56
2022/03/05 17:02:23;;;;;;;17.50;8.50;;;23.50;45.30;;;;;;220549;1267;24813;-57
2022/03/05 17:07:32;;;;;;;14.00;7.40;;;23.30;46.70;;;;;;220575;1267;25477;-55
2022/03/05 17:12:49;;;;;;;14.10;7.10;;;23.30;47.30;;;;;;220042;1267;24582;-58
2022/03/05 17:17:52;;;;;;;14.20;6.80;;;23.10;48.10;;;;;;220397;1267;25490;-56
2022/03/05 17:22:57;;;;;;;12.90;6.90;;;23.00;47.90;;;;;;220003;1267;23018;-57
2022/03/05 17:28:02;;;;;;;16.40;7.40;;;23.00;48.00;;;;;;220543;1266;22780;-55
2022/03/05 17:33:08;;;;;;;13.80;7.40;;;22.90;48.90;;;;;;220152;1267;22558;-56
2022/03/05 17:38:15;;;;;;;15.50;6.70;;;22.80;48.50;;;;;;220207;1267;26530;-55
2022/03/05 17:43:22;;;;;;;13.20;7.00;;;22.80;48.60;;;;;;220140;1267;22704;-56
2022/03/05 17:48:35;;;;;;;15.30;7.40;;;22.70;48.50;;;;;;220624;1267;24507;-57
2022/03/05 17:53:41;;;;;;;15.30;7.40;;;22.60;48.70;;;;;;220162;1267;22532;-57
2022/03/05 17:58:45;;;;;;;13.00;7.10;;;22.70;48.50;;;;;;220482;1267;24238;-56
2022/03/05 18:03:49;;;;;;;18.80;7.80;;;22.60;49.00;;;;;;220715;1267;22544;-56
2022/03/05 18:08:54;;;;;;;18.40;9.20;;;22.60;48.60;;;;;;220619;1267;22541;-57
2022/03/05 18:14:00;;;;;;;17.30;8.30;;;22.50;48.40;;;;;;220368;1267;24273;-57
2022/03/05 18:19:11;;;;;;;16.70;8.80;;;22.50;48.40;;;;;;220076;1267;23490;-54
2022/03/05 18:24:14;;;;;;;15.70;9.00;;;22.40;48.30;;;;;;220492;1267;22672;-55
2022/03/05 18:29:18;;;;;;;15.90;8.60;;;22.40;48.50;;;;;;220158;1267;25248;-55
2022/03/05 18:34:25;;;;;;;18.90;9.00;;;22.40;48.10;;;;;;220345;1267;22895;-56
2022/03/05 18:39:29;;;;;;;19.20;8.70;;;22.40;48.30;;;;;;220838;1267;25567;-57
2022/03/05 18:44:40;;;;;;;20.50;8.80;;;22.30;47.80;;;;;;220242;1267;25318;-56
2022/03/05 18:49:45;;;;;;;16.50;7.70;;;22.30;47.40;;;;;;220362;1267;26316;-56
2022/03/05 18:54:50;;;;;;;20.20;8.80;;;22.30;47.10;;;;;;220990;1267;25294;-56
2022/03/05 19:00:00;;;;;;;16.50;8.30;;;22.20;47.20;;;;;;220209;1267;25410;-55
2022/03/05 19:05:08;;;;;;;15.70;8.10;;;22.10;46.90;;;;;;220253;1266;22538;-55
2022/03/05 19:10:13;;;;;;;18.50;8.90;;;22.10;47.00;;;;;;220124;1267;25260;-56
2022/03/05 19:15:17;;;;;;;20.30;8.90;;;22.10;47.00;;;;;;220592;1267;24243;-56
2022/03/05 19:20:21;;;;;;;16.40;7.80;;;22.30;46.20;;;;;;220529;1267;24365;-55
2022/03/05 19:25:25;;;;;;;14.90;8.10;;;22.70;45.10;;;;;;220154;1267;25264;-55
2022/03/05 19:30:32;;;;;;;15.20;8.20;;;23.00;44.30;;;;;;220277;1267;24292;-55
2022/03/05 19:35:36;;;;;;;14.90;7.70;;;23.30;43.70;;;;;;220517;1267;25387;-54
2022/03/05 19:40:43;;;;;;;14.50;7.80;;;23.40;43.50;;;;;;220193;1267;25785;-56
2022/03/05 19:45:46;;;;;;;13.70;7.20;;;23.50;42.80;;;;;;220281;1267;25490;-56
2022/03/05 19:50:50;;;;;;;17.10;7.50;;;23.60;42.50;;;;;;220358;1268;24939;-55
2022/03/05 19:55:56;;;;;;;15.00;7.20;;;23.70;42.40;;;;;;220284;1267;24059;-56
2022/03/05 20:01:05;;;;;;;13.00;7.90;;;23.70;42.40;;;;;;220080;1268;24321;-55
2022/03/05 20:06:10;;;;;;;11.60;6.90;;;23.80;41.80;;;;;;219992;1265;24234;-57
2022/03/05 20:11:14;;;;;;;13.40;7.30;;;23.70;41.70;;;;;;220425;1267;25512;-56
2022/03/05 20:16:17;;;;;;;14.40;8.20;;;23.70;41.80;;;;;;220358;1264;25443;-58
2022/03/05 20:21:22;;;;;;;13.60;7.90;;;23.80;41.60;;;;;;220463;1267;22585;-56
2022/03/05 20:26:26;;;;;;;16.60;7.80;;;23.80;41.90;;;;;;220382;1267;22534;-55
2022/03/05 20:31:30;;;;;;;14.90;7.60;;;23.90;42.40;;;;;;220217;1267;22633;-55
2022/03/05 20:36:36;;;;;;;16.80;8.40;;;24.00;41.90;;;;;;221271;1267;22733;-56
2022/03/05 20:41:41;;;;;;;18.10;7.90;;;24.10;41.60;;;;;;220293;1265;22534;-54
2022/03/05 20:46:50;;;;;;;14.40;7.30;;;24.10;41.90;;;;;;220297;1264;22556;-57
2022/03/05 20:52:13;;;;;;;10.20;6.30;;;24.00;42.50;;;;;;220280;1264;24227;-55
2022/03/05 20:57:37;;;;;;;17.50;6.90;;;23.90;41.70;;;;;;220236;1267;25538;-54
2022/03/05 21:02:50;;;;;;;21.60;7.70;;;23.70;42.60;;;;;;220945;1267;22849;-56
2022/03/05 21:08:12;;;;;;;16.40;7.10;;;23.60;43.90;;;;;;220344;1267;22542;-55
2022/03/05 21:13:28;;;;;;;14.00;6.20;;;23.40;44.60;;;;;;220057;1267;25289;-56
2022/03/05 21:18:34;;;;;;;15.60;6.90;;;23.30;45.50;;;;;;220518;1267;22606;-56
2022/03/05 21:23:40;;;;;;;18.10;6.30;;;23.20;46.60;;;;;;220242;1266;23029;-52
2022/03/05 21:29:03;;;;;;;15.80;7.40;;;23.10;47.60;;;;;;220278;1267;22550;-55
2022/03/05 21:34:25;;;;;;;12.30;6.50;;;23.00;47.70;;;;;;219572;1267;831007;-54
2022/03/05 21:39:34;;;;;;;16.60;7.00;;;22.90;48.40;;;;;;220194;1264;22607;-56
2022/03/05 21:44:48;;;;;;;15.90;6.90;;;22.80;49.00;;;;;;220408;1267;25404;-55
2022/03/05 21:49:55;;;;;;;17.60;7.20;;;22.80;48.70;;;;;;220412;1267;22600;-55
2022/03/05 21:55:04;;;;;;;14.10;6.60;;;22.70;49.30;;;;;;220371;1265;25263;-56
2022/03/05 22:00:13;;;;;;;11.80;6.40;;;22.60;49.90;;;;;;220345;1265;24450;-55
2022/03/05 22:05:17;;;;;;;16.40;6.20;;;22.50;49.50;;;;;;220545;1267;22560;-56
2022/03/05 22:10:21;;;;;;;10.30;6.20;;;22.50;49.90;;;;;;220541;1267;22784;-55
2022/03/05 22:15:25;;;;;;;12.40;6.30;;;22.40;50.40;;;;;;220661;1267;22515;-56
2022/03/05 22:20:39;;;;;;;16.50;6.50;;;22.40;53.20;;;;;;220584;1267;22543;-55
2022/03/05 22:25:43;;;;;;;14.00;6.50;;;22.60;54.10;;;;;;220552;1264;22753;-56
2022/03/05 22:30:46;;;;;;;14.40;6.80;;;22.90;53.00;;;;;;220445;1265;24360;-57
2022/03/05 22:35:52;;;;;;;15.70;6.80;;;23.30;52.20;;;;;;220406;1264;25201;-55
2022/03/05 22:40:58;;;;;;;14.80;7.00;;;23.60;51.40;;;;;;220365;1267;24731;-57
2022/03/05 22:46:22;;;;;;;13.10;6.70;;;23.70;51.30;;;;;;220307;1264;25968;-55
2022/03/05 22:51:51;;;;;;;13.80;6.20;;;23.80;51.10;;;;;;220452;1267;26570;-55
2022/03/05 22:57:03;;;;;;;11.40;6.40;;;23.90;50.60;;;;;;220145;1264;25556;-54
2022/03/05 23:13:08;;;;;;;9.10;5.40;;;24.20;49.90;;;;;;220234;1265;25326;-53
2022/03/05 23:18:17;;;;;;;14.90;6.00;;;24.30;50.00;;;;;;220798;1267;25308;-57
2022/03/05 23:23:25;;;;;;;15.40;5.80;;;24.30;49.20;;;;;;220388;1268;22629;-54
2022/03/05 23:28:42;;;;;;;11.80;5.90;;;24.30;50.40;;;;;;220658;1267;22676;-57
2022/03/05 23:33:51;;;;;;;12.20;6.60;;;24.10;50.50;;;;;;220111;1267;24551;-55
2022/03/05 23:38:55;;;;;;;11.30;6.30;;;23.90;51.00;;;;;;220429;1267;22623;-57
2022/03/05 23:44:00;;;;;;;11.10;5.80;;;23.80;51.30;;;;;;220450;1267;24224;-55
2022/03/05 23:49:05;;;;;;;11.40;6.00;;;23.60;51.20;;;;;;220384;1268;24275;-56
2022/03/05 23:54:09;;;;;;;12.50;6.10;;;23.50;51.40;;;;;;220967;1267;22531;-54
2022/03/05 23:59:12;;;;;;;11.80;5.60;;;23.40;51.60;;;;;;220349;1268;26090;-54
